Meteorología y climatología de Navarra
Datos de la estación - Meteo Navarra

Estación de Gorramendi GN

Altitud 1071 m.


Datos desde el 09/11/2019 hasta el 10/11/2019 en horario solar
Los datos son PROVISIONALES

Anterior Página 1 de 1 Siguiente Descargar: Formato para Excel 2000 o superior   Formato csv   Formato para OpenOffice Calc
Fecha Temperatura Humedad relativa Radiación global Insolación Precipitación Vel. viento 10 m Vel. viento 10 m Dir. viento 10 m
ºC % W/m² s l/m² m/s km/h º
09/11/2019 0:00 3.0 99 0.0 0 0.0 18.4 66.4 334
09/11/2019 0:10 3.2 99 0.0 0 0.0 17.2 61.9 340
09/11/2019 0:20 3.2 99 0.0 0 0.0 16.5 59.5 330
09/11/2019 0:30 3.2 99 0.0 0 0.2 20.3 73.1 332
09/11/2019 0:40 2.3 99 0.0 0 2.1 18.5 66.7 352
09/11/2019 0:50 2.2 99 0.0 0 1.3 14.9 53.5 352
09/11/2019 1:00 2.8 99 0.0 0 0.0 15.0 54.0 346
09/11/2019 1:10 3.1 99 0.0 0 0.4 13.8 49.5 331
09/11/2019 1:20 3.0 99 0.0 0 0.0 14.2 51.0 331
09/11/2019 1:30 3.1 99 0.0 0 0.4 15.4 55.4 335
09/11/2019 1:40 2.6 99 0.0 0 0.5 19.4 69.8 345
09/11/2019 1:50 2.8 99 0.0 0 0.0 17.4 62.8 329
09/11/2019 2:00 2.4 99 0.0 0 0.3 14.6 52.7 333
09/11/2019 2:10 2.3 99 0.0 0 0.5 14.1 50.8 332
09/11/2019 2:20 2.2 99 0.0 0 0.9 13.5 48.5 330
09/11/2019 2:30 2.3 99 0.0 0 0.1 13.7 49.2 326
09/11/2019 2:40 2.5 99 0.0 0 0.0 13.4 48.2 332
09/11/2019 2:50 2.6 99 0.0 0 0.2 13.9 50.1 333
09/11/2019 3:00 2.5 99 0.0 0 0.0 13.2 47.7 340
09/11/2019 3:10 2.7 99 0.0 0 0.5 12.5 44.8 330
09/11/2019 3:20 2.6 99 0.0 0 1.2 16.5 59.3 342
09/11/2019 3:30 1.8 99 0.0 0 0.3 17.9 64.3 352
09/11/2019 3:40 2.1 99 0.0 0 0.0 18.1 65.3 346
09/11/2019 3:50 2.5 99 0.0 0 0.0 17.0 61.2 347
09/11/2019 4:00 2.4 99 0.0 0 0.0 16.5 59.3 348
09/11/2019 4:10 2.2 99 0.0 0 0.0 16.2 58.3 348
09/11/2019 4:20 2.4 99 0.0 0 0.0 14.8 53.2 346
09/11/2019 4:30 2.4 99 0.0 0 0.0 14.8 53.4 347
09/11/2019 4:40 2.5 99 0.0 0 0.0 14.8 53.4 345
09/11/2019 4:50 2.4 99 0.0 0 0.0 13.2 47.4 347
09/11/2019 5:00 2.5 99 0.0 0 0.5 11.5 41.3 348
09/11/2019 5:10 2.7 99 0.0 0 0.3 13.0 46.9 349
09/11/2019 5:20 2.9 99 0.0 0 0.0 13.8 49.5 348
09/11/2019 5:30 3.2 99 0.0 0 0.0 14.0 50.4 347
09/11/2019 5:40 3.1 99 0.0 0 0.0 11.8 42.4 338
09/11/2019 5:50 3.1 99 0.0 0 0.0 10.3 36.9 342
09/11/2019 6:00 3.2 99 0.0 0 0.0 9.8 35.2 345
09/11/2019 6:10 3.2 99 0.0 0 0.0 10.7 38.7 342
09/11/2019 6:20 3.3 99 0.0 0 0.0 11.0 39.7 347
09/11/2019 6:30 3.3 99 0.0 0 0.0 11.3 40.8 350
09/11/2019 6:40 3.1 99 0.0 0 0.0 11.1 40.0 344
09/11/2019 6:50 3.2 99 0.0 0 0.0 9.7 34.7 335
09/11/2019 7:00 3.2 99 0.0 0 0.0 9.0 32.5 343
09/11/2019 7:10 3.2 99 7.1 0 0.0 11.0 39.6 346
09/11/2019 7:20 3.2 99 5.9 0 0.0 8.5 30.5 336
09/11/2019 7:30 3.2 99 10.8 0 0.0 7.0 25.1 346
09/11/2019 7:40 3.3 99 14.4 0 0.0 7.9 28.4 337
09/11/2019 7:50 3.4 99 28.7 0 0.1 7.7 27.7 327
09/11/2019 8:00 3.1 99 25.2 0 0.2 8.2 29.6 330
09/11/2019 8:10 2.8 99 45.1 0 0.2 9.6 34.4 323
09/11/2019 8:20 2.9 99 54.4 0 0.1 9.5 34.0 313
09/11/2019 8:30 3.0 99 43.5 0 0.1 8.2 29.5 299
09/11/2019 8:40 3.1 99 53.1 0 0.0 7.4 26.6 286
09/11/2019 8:50 3.1 99 53.9 0 0.0 6.3 22.8 273
09/11/2019 9:00 3.1 99 73.1 0 0.0 5.6 20.3 266
09/11/2019 9:10 3.1 99 83.4 0 0.0 5.5 19.7 269
09/11/2019 9:20 3.1 99 77.6 0 0.0 5.1 18.3 269
09/11/2019 9:30 3.1 99 124.5 0 0.0 4.6 16.7 270
09/11/2019 9:40 3.2 99 147.7 0 0.0 4.8 17.3 265
09/11/2019 9:50 3.2 99 138.7 0 0.0 4.6 16.7 250
09/11/2019 10:00 3.2 99 148.7 0 0.0 5.0 18.0 248
09/11/2019 10:10 3.3 99 124.6 0 0.0 6.3 22.7 247
09/11/2019 10:20 3.4 99 128.2 0 0.0 6.8 24.4 252
09/11/2019 10:30 3.4 99 146.6 0 0.0 6.1 21.8 251
09/11/2019 10:40 3.4 99 112.5 0 0.0 7.0 25.1 255
09/11/2019 10:50 3.5 99 219.1 34 0.0 6.7 24.1 247
09/11/2019 11:00 3.5 99 175.5 0 0.0 7.0 25.2 250
09/11/2019 11:10 3.6 99 163.6 0 0.0 6.6 23.7 247
09/11/2019 11:20 3.5 99 132.9 0 0.0 6.9 24.7 249
09/11/2019 11:30 3.5 99 155.0 0 0.0 7.0 25.1 254
09/11/2019 11:40 3.5 99 185.8 0 0.0 6.4 22.9 258
09/11/2019 11:50 3.5 99 118.9 0 0.0 6.4 22.9 249
09/11/2019 12:00 3.5 99 238.3 116 0.0 7.0 25.3 253
09/11/2019 12:10 3.7 99 440.8 600 0.0 7.8 28.2 252
09/11/2019 12:20 3.8 99 375.8 600 0.0 8.7 31.3 251
09/11/2019 12:30 3.8 99 280.8 430 0.0 9.0 32.4 245
09/11/2019 12:40 3.6 99 193.1 100 0.0 10.0 35.9 243
09/11/2019 12:50 3.7 99 155.8 0 0.0 10.1 36.3 239
09/11/2019 13:00 3.8 99 210.2 124 0.0 10.3 37.0 237
09/11/2019 13:10 3.7 99 229.6 202 0.0 10.7 38.6 241
09/11/2019 13:20 3.4 99 212.8 130 0.0 9.9 35.7 239
09/11/2019 13:30 3.3 99 204.4 54 0.0 8.9 31.9 236
09/11/2019 13:40 3.2 99 94.3 0 0.0 9.3 33.5 229
09/11/2019 13:50 3.3 99 83.6 0 0.0 10.1 36.3 225
09/11/2019 14:00 3.3 99 36.1 0 0.1 9.4 33.8 239
09/11/2019 14:10 3.2 99 24.8 0 0.7 7.8 28.2 245
09/11/2019 14:20 3.1 99 37.3 0 0.1 9.1 32.9 232
09/11/2019 14:30 3.1 99 30.1 0 0.3 9.0 32.4 227
09/11/2019 14:40 3.3 99 33.7 0 0.4 10.3 37.0 231
09/11/2019 14:50 3.4 99 42.6 0 0.7 10.4 37.3 239
09/11/2019 15:00 3.3 99 26.4 0 0.4 10.9 39.1 255
09/11/2019 15:10 3.4 99 26.4 0 0.3 13.8 49.6 254
09/11/2019 15:20 3.4 99 21.5 0 0.2 15.5 55.8 260
09/11/2019 15:30 3.9 99 21.2 0 0.2 16.8 60.5 274
09/11/2019 15:40 4.1 99 16.0 0 0.0 16.9 60.8 287
09/11/2019 15:50 4.4 99 2.2 0 0.2 18.7 67.4 294
09/11/2019 16:00 4.6 99 3.5 0 0.1 21.3 76.7 297
09/11/2019 16:10 4.7 99 0.0 0 0.0 19.0 68.4 311
09/11/2019 16:20 4.8 99 1.9 0 0.0 19.5 70.0 314
09/11/2019 16:30 4.9 99 0.0 0 0.0 19.6 70.4 318
09/11/2019 16:40 4.9 99 0.0 0 0.0 20.3 73.1 313
09/11/2019 16:50 4.7 99 0.0 0 0.0 20.6 74.0 315
09/11/2019 17:00 4.7 99 0.0 0 0.0 18.0 64.7 307
09/11/2019 17:10 4.7 99 0.0 0 0.0 19.1 68.7 304
09/11/2019 17:20 4.8 99 0.0 0 1.4 15.5 55.7 305
09/11/2019 17:30 4.7 99 0.0 0 0.3 20.6 74.2 321
09/11/2019 17:40 4.5 99 0.0 0 0.0 19.6 70.6 310
09/11/2019 17:50 4.3 99 0.0 0 0.0 17.3 62.3 296
09/11/2019 18:00 4.3 99 0.0 0 0.0 19.6 70.6 299
09/11/2019 18:10 4.2 99 0.0 0 0.4 18.4 66.3 306
09/11/2019 18:20 4.2 99 0.0 0 1.2 17.4 62.7 319
09/11/2019 18:30 4.2 99 0.0 0 0.4 17.6 63.4 328
09/11/2019 18:40 4.1 99 0.0 0 0.0 17.3 62.4 326
09/11/2019 18:50 3.9 99 0.0 0 0.2 16.3 58.8 317
09/11/2019 19:00 3.8 99 0.0 0 1.7 19.3 69.3 319
09/11/2019 19:10 2.8 99 0.0 0 0.9 21.8 78.6 320
09/11/2019 19:20 2.7 99 0.0 0 0.9 20.9 75.4 318
09/11/2019 19:30 2.8 99 0.0 0 1.4 22.7 81.6 322
09/11/2019 19:40 2.4 99 0.0 0 1.6 19.9 71.7 326
09/11/2019 19:50 2.3 99 0.0 0 0.8 18.1 65.2 322
09/11/2019 20:00 2.1 99 0.0 0 0.8 18.4 66.1 331
09/11/2019 20:10 2.2 99 0.0 0 0.8 17.6 63.3 319
09/11/2019 20:20 2.2 99 0.0 0 0.7 18.6 66.8 318
09/11/2019 20:30 2.5 99 0.0 0 0.0 18.2 65.4 329
09/11/2019 20:40 2.7 99 0.0 0 0.1 15.8 56.9 334
09/11/2019 20:50 2.7 99 0.0 0 0.3 16.8 60.5 322
09/11/2019 21:00 2.5 99 0.0 0 0.0 17.9 64.4 324
09/11/2019 21:10 2.2 99 0.0 0 0.1 14.5 52.1 320
09/11/2019 21:20 2.0 99 0.0 0 0.3 12.4 44.5 321
09/11/2019 21:30 1.6 99 0.0 0 1.5 19.7 70.7 343
09/11/2019 21:40 1.7 99 0.0 0 0.3 16.8 60.6 341
09/11/2019 21:50 1.6 99 0.0 0 0.1 19.9 71.6 336
09/11/2019 22:00 1.6 99 0.0 0 0.1 15.9 57.2 342
09/11/2019 22:10 1.7 99 0.0 0 0.1 14.0 50.5 337
09/11/2019 22:20 1.8 99 0.0 0 0.0 12.8 46.0 334
09/11/2019 22:30 1.9 99 0.0 0 0.0 10.6 38.3 324
09/11/2019 22:40 2.0 99 0.0 0 0.5 11.2 40.1 311
09/11/2019 22:50 2.0 99 0.0 0 0.7 12.0 43.1 315
09/11/2019 23:00 1.3 99 0.0 0 0.8 13.7 49.3 353
09/11/2019 23:10 0.6 99 0.0 0 0.1 12.6 45.2 352
09/11/2019 23:20 1.2 99 0.0 0 0.0 15.5 55.9 356
09/11/2019 23:30 1.5 99 0.0 0 0.5 13.8 49.8 345
09/11/2019 23:40 1.5 99 0.0 0 0.0 16.8 60.4 352
09/11/2019 23:50 1.5 99 0.0 0 0.0 15.4 55.3 357
Anterior Página 1 de 1 Siguiente
Los datos de precipitación registrados en estaciones que están en cumbres son inferiores a lo real, como consecuencia del efecto del viento y de la nieve.


NOTA: Tipo de datos según el color:
   - Valores diarios o 10 minutos correctos
   - Valores diarios calculados a partir de un número de datos 10 minutos menor que 144 y mayor que 120, o de un número de datos semihorarios menor que 48 y mayor que 40 (caso de las estaciones de Riegos de Navarra y del MARM)
   - Valores diez minutos estimados


Contacto        Enlaces        Aviso legal